createdAt,value
2023-01-03T00:00:09.385Z,0
2023-01-03T00:06:20.062Z,0
2023-01-03T00:13:36.626Z,0
2023-01-03T00:19:47.306Z,0
2023-01-03T00:27:12.056Z,0
2023-01-03T00:34:36.886Z,0
2023-01-03T00:39:41.611Z,0
2023-01-03T00:47:06.381Z,0
2023-01-03T00:54:31.349Z,0
2023-01-03T01:01:56.090Z,0
2023-01-03T01:10:34.923Z,0
2023-01-03T01:18:07.893Z,0
2023-01-03T01:24:18.562Z,0
2023-01-03T01:29:47.976Z,0
2023-01-03T01:36:56.287Z,0
2023-01-03T01:43:15.178Z,0
2023-01-03T01:49:25.831Z,0
2023-01-03T01:55:36.475Z,0
2023-01-03T02:03:01.404Z,0
2023-01-03T02:09:20.145Z,0
2023-01-03T02:15:30.772Z,0
2023-01-03T02:25:23.876Z,0
2023-01-03T02:34:02.802Z,0
2023-01-03T02:40:13.474Z,0
2023-01-03T02:47:38.265Z,0
2023-01-03T02:55:03.067Z,0
2023-01-03T03:02:28.039Z,0
2023-01-03T03:09:52.692Z,0
2023-01-03T03:17:17.452Z,0
2023-01-03T03:24:50.423Z,0
2023-01-03T03:34:43.547Z,0
2023-01-03T03:42:08.323Z,0
2023-01-03T03:48:18.976Z,0
2023-01-03T03:56:41.541Z,0
2023-01-03T04:02:52.385Z,0
2023-01-03T04:09:02.917Z,0
2023-01-03T04:14:07.630Z,0
2023-01-03T04:19:12.297Z,0
2023-01-03T04:25:22.996Z,0
2023-01-03T04:31:41.935Z,0
2023-01-03T04:38:00.677Z,0
2023-01-03T04:45:25.577Z,0
2023-01-03T04:52:50.304Z,0
2023-01-03T05:03:57.527Z,0
2023-01-03T05:11:30.499Z,0
2023-01-03T05:17:16.565Z,0
2023-01-03T05:24:41.388Z,0
2023-01-03T05:32:06.302Z,0
2023-01-03T05:39:30.961Z,0
2023-01-03T05:46:55.745Z,0
2023-01-03T05:54:20.615Z,0
2023-01-03T06:01:45.483Z,0
2023-01-03T06:12:52.591Z,0
2023-01-03T06:21:06.900Z,0
2023-01-03T06:26:11.827Z,0
2023-01-03T06:31:40.950Z,0
2023-01-03T06:40:19.864Z,0
2023-01-03T06:46:30.662Z,0
2023-01-03T06:53:55.404Z,0
2023-01-03T07:01:20.237Z,0
2023-01-03T07:08:48.463Z,0
2023-01-03T07:16:26.303Z,0
2023-01-03T07:22:36.815Z,0
2023-01-03T07:31:15.744Z,0
2023-01-03T07:38:40.526Z,0
2023-01-03T07:46:05.361Z,0
2023-01-03T07:52:16.061Z,0
2023-01-03T07:57:20.733Z,0
2023-01-03T08:07:13.778Z,0
2023-01-03T08:14:38.608Z,0
2023-01-03T08:22:03.349Z,0
2023-01-03T08:27:08.276Z,0
2023-01-03T08:34:32.924Z,0
2023-01-03T08:49:06.277Z,0
2023-01-03T08:54:08.843Z,0
2023-01-03T08:59:27.839Z,0
2023-01-03T09:05:05.379Z,0
2023-01-03T09:10:59.419Z,0
2023-01-03T09:16:51.418Z,0
2023-01-03T09:22:08.358Z,0
2023-01-03T09:28:02.383Z,0
2023-01-03T09:33:56.375Z,0
2023-01-03T09:39:31.903Z,0
2023-01-03T09:44:48.947Z,0
2023-01-03T09:50:35.021Z,0
2023-01-03T09:57:08.550Z,0
2023-01-03T10:02:48.662Z,0
2023-01-03T10:08:22.019Z,0
2023-01-03T10:13:22.417Z,0
2023-01-03T10:18:37.354Z,0
2023-01-03T10:24:49.865Z,0
2023-01-03T10:30:04.793Z,0
2023-01-03T10:35:38.445Z,0
2023-01-03T10:41:14.149Z,0
2023-01-03T10:47:07.850Z,0
2023-01-03T10:52:08.284Z,0
2023-01-03T10:57:08.795Z,1
2023-01-03T11:02:25.962Z,0
2023-01-03T11:07:50.052Z,0.6
2023-01-03T11:13:11.780Z,0.3
2023-01-03T11:18:50.010Z,0.5
2023-01-03T11:23:50.037Z,0.3
2023-01-03T11:28:50.025Z,0.8
2023-01-03T11:35:21.507Z,0.4
2023-01-03T11:40:09.396Z,1.2
2023-01-03T11:45:50.139Z,2
2023-01-03T11:51:08.552Z,1.5
2023-01-03T11:56:41.191Z,1.4
2023-01-03T12:01:58.232Z,1.3
2023-01-03T12:07:45.714Z,1.1
2023-01-03T12:12:20.074Z,0.7
2023-01-03T12:17:50.032Z,0.9
2023-01-03T12:22:55.260Z,0.8
2023-01-03T12:28:14.341Z,0.6
2023-01-03T12:33:51.924Z,0.7
2023-01-03T12:39:32.683Z,1
2023-01-03T12:45:00.878Z,1.1
2023-01-03T12:50:17.913Z,0.8
2023-01-03T12:55:50.044Z,1.1
2023-01-03T13:01:50.165Z,0.9
2023-01-03T13:07:09.419Z,1
2023-01-03T13:12:09.482Z,1.1
2023-01-03T13:17:50.060Z,0.9
2023-01-03T13:24:50.017Z,1.2
2023-01-03T13:30:09.366Z,1.7
2023-01-03T13:35:50.071Z,1.9
2023-01-03T13:41:17.677Z,1.6
2023-01-03T13:46:50.151Z,1.4
2023-01-03T13:51:50.075Z,1.2
2023-01-03T13:56:59.084Z,1.3
2023-01-03T14:02:08.864Z,1.1
2023-01-03T14:07:27.100Z,1
2023-01-03T14:12:27.608Z,0.9
2023-01-03T14:17:50.040Z,0.8
2023-01-03T14:22:50.054Z,1
2023-01-03T14:28:22.670Z,0.9
2023-01-03T14:33:39.674Z,0.6
2023-01-03T14:38:50.076Z,1.1
2023-01-03T14:43:50.024Z,1.2
2023-01-03T14:48:50.033Z,1.1
2023-01-03T14:54:04.185Z,1.2
2023-01-03T14:59:37.599Z,1.6
2023-01-03T15:05:46.046Z,1.7
2023-01-03T15:11:19.543Z,1.7
2023-01-03T15:16:36.647Z,1.8
2023-01-03T15:22:09.911Z,1.7
2023-01-03T15:27:10.467Z,1.8
2023-01-03T15:32:45.941Z,1.6
2023-01-03T15:38:02.915Z,1.6
2023-01-03T15:43:27.122Z,1.2
2023-01-03T15:49:00.529Z,1.2
2023-01-03T15:55:08.589Z,1
2023-01-03T16:00:32.381Z,0.6
2023-01-03T16:05:50.044Z,0.8
2023-01-03T16:10:50.028Z,0.6
2023-01-03T16:16:27.269Z,0.3
2023-01-03T16:21:32.356Z,0.4
2023-01-03T16:26:55.500Z,0.3
2023-01-03T16:32:12.624Z,0.2
2023-01-03T16:37:45.863Z,0
2023-01-03T16:43:58.448Z,0
2023-01-03T16:49:33.963Z,0
2023-01-03T16:55:07.437Z,0
2023-01-03T17:01:01.502Z,0
2023-01-03T17:06:38.555Z,0
2023-01-03T17:12:49.467Z,0
2023-01-03T17:18:06.457Z,0
2023-01-03T17:23:39.928Z,0
2023-01-03T17:29:15.383Z,0
2023-01-03T17:34:52.973Z,0
2023-01-03T17:40:07.863Z,0
2023-01-03T17:45:43.410Z,0
2023-01-03T17:51:00.326Z,0.3
2023-01-03T17:56:19.398Z,0
2023-01-03T18:01:38.517Z,0
2023-01-03T18:06:38.904Z,0
2023-01-03T18:12:30.851Z,0
2023-01-03T18:18:43.404Z,0
2023-01-03T18:24:16.846Z,0
2023-01-03T18:29:52.553Z,0
2023-01-03T18:35:30.977Z,0
2023-01-03T18:41:05.422Z,0
2023-01-03T18:46:53.433Z,0
2023-01-03T18:53:24.354Z,0
2023-01-03T18:58:35.110Z,0
2023-01-03T19:04:27.078Z,0
2023-01-03T19:09:44.074Z,0
2023-01-03T19:15:36.088Z,0
2023-01-03T19:20:55.073Z,0
2023-01-03T19:26:09.948Z,0
2023-01-03T19:32:59.570Z,0
2023-01-03T19:38:20.692Z,0
2023-01-03T19:43:56.126Z,0
2023-01-03T19:49:33.681Z,0
2023-01-03T19:55:44.204Z,0
2023-01-03T20:01:01.142Z,0
2023-01-03T20:07:48.722Z,0
2023-01-03T20:13:24.225Z,0
2023-01-03T20:18:39.128Z,0
2023-01-03T20:24:14.630Z,0
2023-01-03T20:30:27.189Z,0
2023-01-03T20:41:32.038Z,0
2023-01-03T20:47:24.018Z,0
2023-01-03T20:52:38.966Z,0
2023-01-03T20:57:53.859Z,0
2023-01-03T21:04:59.948Z,0
2023-01-03T21:10:14.859Z,0
2023-01-03T21:16:06.868Z,0
2023-01-03T21:21:58.844Z,0
2023-01-03T21:27:03.415Z,0
2023-01-03T21:32:36.862Z,0
2023-01-03T21:38:47.407Z,0
2023-01-03T21:44:22.874Z,0
2023-01-03T21:49:56.290Z,0
2023-01-03T21:55:50.484Z,0
2023-01-03T22:01:05.308Z,0
2023-01-03T22:06:22.274Z,0
2023-01-03T22:11:37.170Z,0
2023-01-03T22:16:54.199Z,0
2023-01-03T22:22:46.081Z,0
2023-01-03T22:28:03.209Z,0
2023-01-03T22:33:20.074Z,0
2023-01-03T22:38:20.529Z,0
2023-01-03T22:44:33.144Z,0
2023-01-03T22:51:02.133Z,0
2023-01-03T22:56:52.033Z,0
2023-01-03T23:02:44.140Z,0
2023-01-03T23:07:58.945Z,0
2023-01-03T23:13:50.912Z,0
2023-01-03T23:19:05.905Z,0
2023-01-03T23:24:57.849Z,0
2023-01-03T23:31:08.452Z,0
2023-01-03T23:36:23.287Z,0
2023-01-03T23:41:38.192Z,0
2023-01-03T23:48:07.206Z,0
2023-01-03T23:53:22.195Z,0
2023-01-03T23:58:47.298Z,0
